sensor_id;sensor_type;location;lat;lon;timestamp;temperature;humidity
69895;DHT22;57172;52.034;5.090;2023-08-20T00:01:25;20.50;67.30
69895;DHT22;57172;52.034;5.090;2023-08-20T00:03:52;20.50;67.40
69895;DHT22;57172;52.034;5.090;2023-08-20T00:06:20;20.50;67.40
69895;DHT22;57172;52.034;5.090;2023-08-20T00:08:48;20.50;67.70
69895;DHT22;57172;52.034;5.090;2023-08-20T00:11:15;20.50;67.80
69895;DHT22;57172;52.034;5.090;2023-08-20T00:13:43;20.50;67.90
69895;DHT22;57172;52.034;5.090;2023-08-20T00:16:10;20.50;67.80
69895;DHT22;57172;52.034;5.090;2023-08-20T00:18:38;20.50;67.90
69895;DHT22;57172;52.034;5.090;2023-08-20T00:21:05;20.50;68.10
69895;DHT22;57172;52.034;5.090;2023-08-20T00:23:33;20.50;68.20
69895;DHT22;57172;52.034;5.090;2023-08-20T00:26:00;20.50;68.20
69895;DHT22;57172;52.034;5.090;2023-08-20T00:28:29;20.60;68.30
69895;DHT22;57172;52.034;5.090;2023-08-20T00:30:56;20.50;68.50
69895;DHT22;57172;52.034;5.090;2023-08-20T00:33:23;20.50;68.70
69895;DHT22;57172;52.034;5.090;2023-08-20T00:35:50;20.50;68.70
69895;DHT22;57172;52.034;5.090;2023-08-20T00:38:17;20.60;68.80
69895;DHT22;57172;52.034;5.090;2023-08-20T00:40:44;20.60;68.80
69895;DHT22;57172;52.034;5.090;2023-08-20T00:43:11;20.60;68.90
69895;DHT22;57172;52.034;5.090;2023-08-20T00:45:41;20.70;68.90
69895;DHT22;57172;52.034;5.090;2023-08-20T00:48:08;20.70;68.70
69895;DHT22;57172;52.034;5.090;2023-08-20T00:50:37;20.80;68.60
69895;DHT22;57172;52.034;5.090;2023-08-20T00:53:06;20.80;68.50
69895;DHT22;57172;52.034;5.090;2023-08-20T00:55:35;20.70;68.40
69895;DHT22;57172;52.034;5.090;2023-08-20T00:58:02;20.70;68.40
69895;DHT22;57172;52.034;5.090;2023-08-20T01:00:29;20.70;68.40
69895;DHT22;57172;52.034;5.090;2023-08-20T01:02:56;20.60;68.40
69895;DHT22;57172;52.034;5.090;2023-08-20T01:05:23;20.50;68.50
69895;DHT22;57172;52.034;5.090;2023-08-20T01:07:58;20.50;68.60
69895;DHT22;57172;52.034;5.090;2023-08-20T01:10:47;20.50;68.80
69895;DHT22;57172;52.034;5.090;2023-08-20T01:13:20;20.40;69.00
69895;DHT22;57172;52.034;5.090;2023-08-20T01:15:47;20.50;69.10
69895;DHT22;57172;52.034;5.090;2023-08-20T01:18:15;20.50;69.20
69895;DHT22;57172;52.034;5.090;2023-08-20T01:20:55;20.50;69.30
69895;DHT22;57172;52.034;5.090;2023-08-20T01:23:48;20.40;69.50
69895;DHT22;57172;52.034;5.090;2023-08-20T01:26:25;20.40;69.50
69895;DHT22;57172;52.034;5.090;2023-08-20T01:28:56;20.40;69.60
69895;DHT22;57172;52.034;5.090;2023-08-20T01:31:25;20.30;69.50
69895;DHT22;57172;52.034;5.090;2023-08-20T01:33:53;20.30;69.50
69895;DHT22;57172;52.034;5.090;2023-08-20T01:36:24;20.30;69.40
69895;DHT22;57172;52.034;5.090;2023-08-20T01:38:51;20.40;69.40
69895;DHT22;57172;52.034;5.090;2023-08-20T01:41:18;20.30;69.30
69895;DHT22;57172;52.034;5.090;2023-08-20T01:43:45;20.30;69.40
69895;DHT22;57172;52.034;5.090;2023-08-20T01:46:11;20.30;69.40
69895;DHT22;57172;52.034;5.090;2023-08-20T01:48:40;20.30;69.70
69895;DHT22;57172;52.034;5.090;2023-08-20T01:51:06;20.20;69.90
69895;DHT22;57172;52.034;5.090;2023-08-20T01:53:33;20.20;70.00
69895;DHT22;57172;52.034;5.090;2023-08-20T01:56:00;20.20;70.10
69895;DHT22;57172;52.034;5.090;2023-08-20T01:58:27;20.20;70.10
69895;DHT22;57172;52.034;5.090;2023-08-20T02:00:54;20.30;70.10
69895;DHT22;57172;52.034;5.090;2023-08-20T02:03:21;20.30;70.10
69895;DHT22;57172;52.034;5.090;2023-08-20T02:05:49;20.30;70.00
69895;DHT22;57172;52.034;5.090;2023-08-20T02:08:16;20.30;69.90
69895;DHT22;57172;52.034;5.090;2023-08-20T02:10:43;20.30;69.80
69895;DHT22;57172;52.034;5.090;2023-08-20T02:13:09;20.20;69.70
69895;DHT22;57172;52.034;5.090;2023-08-20T02:15:37;20.20;69.90
69895;DHT22;57172;52.034;5.090;2023-08-20T02:18:04;20.10;69.90
69895;DHT22;57172;52.034;5.090;2023-08-20T02:20:31;20.00;70.00
69895;DHT22;57172;52.034;5.090;2023-08-20T02:22:58;20.00;70.00
69895;DHT22;57172;52.034;5.090;2023-08-20T02:25:25;19.90;70.10
69895;DHT22;57172;52.034;5.090;2023-08-20T02:27:54;19.90;70.30
69895;DHT22;57172;52.034;5.090;2023-08-20T02:30:21;19.80;70.50
69895;DHT22;57172;52.034;5.090;2023-08-20T02:32:48;19.70;71.00
69895;DHT22;57172;52.034;5.090;2023-08-20T02:35:15;19.60;71.40
69895;DHT22;57172;52.034;5.090;2023-08-20T02:37:43;19.60;71.40
69895;DHT22;57172;52.034;5.090;2023-08-20T02:40:11;19.50;71.40
69895;DHT22;57172;52.034;5.090;2023-08-20T02:42:38;19.50;71.50
69895;DHT22;57172;52.034;5.090;2023-08-20T02:45:05;19.50;71.50
69895;DHT22;57172;52.034;5.090;2023-08-20T02:47:32;19.40;71.90
69895;DHT22;57172;52.034;5.090;2023-08-20T02:50:01;19.40;72.10
69895;DHT22;57172;52.034;5.090;2023-08-20T02:52:31;19.30;72.30
69895;DHT22;57172;52.034;5.090;2023-08-20T02:54:58;19.30;72.60
69895;DHT22;57172;52.034;5.090;2023-08-20T02:57:25;19.30;72.80
69895;DHT22;57172;52.034;5.090;2023-08-20T02:59:52;19.20;73.00
69895;DHT22;57172;52.034;5.090;2023-08-20T03:02:19;19.20;73.20
69895;DHT22;57172;52.034;5.090;2023-08-20T03:04:46;19.20;73.30
69895;DHT22;57172;52.034;5.090;2023-08-20T03:07:13;19.10;73.30
69895;DHT22;57172;52.034;5.090;2023-08-20T03:09:40;19.10;73.30
69895;DHT22;57172;52.034;5.090;2023-08-20T03:12:07;19.10;73.40
69895;DHT22;57172;52.034;5.090;2023-08-20T03:14:34;19.10;73.40
69895;DHT22;57172;52.034;5.090;2023-08-20T03:17:01;19.10;73.50
69895;DHT22;57172;52.034;5.090;2023-08-20T03:21:58;19.10;73.70
69895;DHT22;57172;52.034;5.090;2023-08-20T03:24:25;19.10;73.80
69895;DHT22;57172;52.034;5.090;2023-08-20T03:26:52;19.20;73.90
69895;DHT22;57172;52.034;5.090;2023-08-20T03:29:19;19.20;73.90
69895;DHT22;57172;52.034;5.090;2023-08-20T03:31:45;19.30;74.10
69895;DHT22;57172;52.034;5.090;2023-08-20T03:34:13;19.30;74.10
69895;DHT22;57172;52.034;5.090;2023-08-20T03:36:39;19.30;74.00
69895;DHT22;57172;52.034;5.090;2023-08-20T03:39:06;19.20;74.00
69895;DHT22;57172;52.034;5.090;2023-08-20T03:41:33;19.20;74.00
69895;DHT22;57172;52.034;5.090;2023-08-20T03:44:00;19.20;74.10
69895;DHT22;57172;52.034;5.090;2023-08-20T03:46:27;19.20;74.20
69895;DHT22;57172;52.034;5.090;2023-08-20T03:48:54;19.20;74.10
69895;DHT22;57172;52.034;5.090;2023-08-20T03:51:21;19.20;74.00
69895;DHT22;57172;52.034;5.090;2023-08-20T03:53:48;19.20;74.10
69895;DHT22;57172;52.034;5.090;2023-08-20T03:56:15;19.10;74.10
69895;DHT22;57172;52.034;5.090;2023-08-20T03:58:42;19.10;74.00
69895;DHT22;57172;52.034;5.090;2023-08-20T04:01:09;19.10;73.90
69895;DHT22;57172;52.034;5.090;2023-08-20T04:03:36;19.10;73.80
69895;DHT22;57172;52.034;5.090;2023-08-20T04:06:03;19.10;73.80
69895;DHT22;57172;52.034;5.090;2023-08-20T04:08:30;19.10;73.60
69895;DHT22;57172;52.034;5.090;2023-08-20T04:10:57;19.10;73.40
69895;DHT22;57172;52.034;5.090;2023-08-20T04:13:24;19.10;73.40
69895;DHT22;57172;52.034;5.090;2023-08-20T04:15:52;19.00;73.30
69895;DHT22;57172;52.034;5.090;2023-08-20T04:18:19;19.00;73.30
69895;DHT22;57172;52.034;5.090;2023-08-20T04:20:46;19.00;73.20
69895;DHT22;57172;52.034;5.090;2023-08-20T04:23:13;19.00;73.10
69895;DHT22;57172;52.034;5.090;2023-08-20T04:25:40;18.90;73.10
69895;DHT22;57172;52.034;5.090;2023-08-20T04:28:08;18.80;73.30
69895;DHT22;57172;52.034;5.090;2023-08-20T04:30:35;18.80;73.40
69895;DHT22;57172;52.034;5.090;2023-08-20T04:33:04;18.70;73.60
69895;DHT22;57172;52.034;5.090;2023-08-20T04:35:33;18.70;73.70
69895;DHT22;57172;52.034;5.090;2023-08-20T04:38:01;18.70;73.80
69895;DHT22;57172;52.034;5.090;2023-08-20T04:40:28;18.70;73.90
69895;DHT22;57172;52.034;5.090;2023-08-20T04:42:55;18.60;74.00
69895;DHT22;57172;52.034;5.090;2023-08-20T04:45:22;18.60;74.10
69895;DHT22;57172;52.034;5.090;2023-08-20T04:47:49;18.60;74.20
69895;DHT22;57172;52.034;5.090;2023-08-20T04:50:15;18.60;74.10
69895;DHT22;57172;52.034;5.090;2023-08-20T04:52:46;18.60;74.10
69895;DHT22;57172;52.034;5.090;2023-08-20T04:55:14;18.60;74.20
69895;DHT22;57172;52.034;5.090;2023-08-20T04:57:43;18.50;74.20
69895;DHT22;57172;52.034;5.090;2023-08-20T05:00:10;18.50;74.20
69895;DHT22;57172;52.034;5.090;2023-08-20T05:02:44;18.50;74.10
69895;DHT22;57172;52.034;5.090;2023-08-20T05:05:14;18.50;74.10
69895;DHT22;57172;52.034;5.090;2023-08-20T05:07:41;18.50;74.20
69895;DHT22;57172;52.034;5.090;2023-08-20T05:10:08;18.50;74.20
69895;DHT22;57172;52.034;5.090;2023-08-20T05:12:36;18.50;74.40
69895;DHT22;57172;52.034;5.090;2023-08-20T05:15:04;18.50;74.70
69895;DHT22;57172;52.034;5.090;2023-08-20T05:17:31;18.50;75.00
69895;DHT22;57172;52.034;5.090;2023-08-20T05:19:58;18.50;75.10
69895;DHT22;57172;52.034;5.090;2023-08-20T05:22:26;18.50;75.10
69895;DHT22;57172;52.034;5.090;2023-08-20T05:24:53;18.50;75.10
69895;DHT22;57172;52.034;5.090;2023-08-20T05:27:20;18.50;75.10
69895;DHT22;57172;52.034;5.090;2023-08-20T05:29:50;18.60;75.20
69895;DHT22;57172;52.034;5.090;2023-08-20T05:32:17;18.60;75.30
69895;DHT22;57172;52.034;5.090;2023-08-20T05:34:44;18.60;75.50
69895;DHT22;57172;52.034;5.090;2023-08-20T05:37:11;18.60;75.60
69895;DHT22;57172;52.034;5.090;2023-08-20T05:39:43;18.60;75.70
69895;DHT22;57172;52.034;5.090;2023-08-20T05:42:11;18.70;75.80
69895;DHT22;57172;52.034;5.090;2023-08-20T05:44:42;18.70;75.70
69895;DHT22;57172;52.034;5.090;2023-08-20T05:47:12;18.80;75.60
69895;DHT22;57172;52.034;5.090;2023-08-20T05:49:40;18.80;75.60
69895;DHT22;57172;52.034;5.090;2023-08-20T05:52:07;18.90;75.60
69895;DHT22;57172;52.034;5.090;2023-08-20T05:54:34;18.90;75.80
69895;DHT22;57172;52.034;5.090;2023-08-20T05:57:01;18.90;75.80
69895;DHT22;57172;52.034;5.090;2023-08-20T05:59:29;18.90;75.90
69895;DHT22;57172;52.034;5.090;2023-08-20T06:01:56;18.90;75.90
69895;DHT22;57172;52.034;5.090;2023-08-20T06:04:23;18.90;75.80
69895;DHT22;57172;52.034;5.090;2023-08-20T06:06:50;19.00;75.80
69895;DHT22;57172;52.034;5.090;2023-08-20T06:09:17;19.00;75.90
69895;DHT22;57172;52.034;5.090;2023-08-20T06:11:44;19.10;75.90
69895;DHT22;57172;52.034;5.090;2023-08-20T06:14:11;19.10;75.90
69895;DHT22;57172;52.034;5.090;2023-08-20T06:16:37;19.10;75.80
69895;DHT22;57172;52.034;5.090;2023-08-20T06:19:04;19.20;75.80
69895;DHT22;57172;52.034;5.090;2023-08-20T06:21:31;19.20;75.70
69895;DHT22;57172;52.034;5.090;2023-08-20T06:24:00;19.30;75.60
69895;DHT22;57172;52.034;5.090;2023-08-20T06:26:27;19.30;75.60
69895;DHT22;57172;52.034;5.090;2023-08-20T06:28:54;19.30;75.50
69895;DHT22;57172;52.034;5.090;2023-08-20T06:31:20;19.30;75.50
69895;DHT22;57172;52.034;5.090;2023-08-20T06:33:47;19.40;75.60
69895;DHT22;57172;52.034;5.090;2023-08-20T06:36:14;19.40;75.50
69895;DHT22;57172;52.034;5.090;2023-08-20T06:38:43;19.40;75.50
69895;DHT22;57172;52.034;5.090;2023-08-20T06:41:10;19.50;75.50
69895;DHT22;57172;52.034;5.090;2023-08-20T06:43:37;19.50;75.50
69895;DHT22;57172;52.034;5.090;2023-08-20T06:46:04;19.60;75.50
69895;DHT22;57172;52.034;5.090;2023-08-20T06:48:31;19.60;75.40
69895;DHT22;57172;52.034;5.090;2023-08-20T06:50:58;19.70;75.40
69895;DHT22;57172;52.034;5.090;2023-08-20T06:53:25;19.70;75.50
69895;DHT22;57172;52.034;5.090;2023-08-20T06:55:52;19.80;75.50
69895;DHT22;57172;52.034;5.090;2023-08-20T06:58:19;19.80;75.50
69895;DHT22;57172;52.034;5.090;2023-08-20T07:00:45;19.90;75.50
69895;DHT22;57172;52.034;5.090;2023-08-20T07:03:12;20.00;75.50
69895;DHT22;57172;52.034;5.090;2023-08-20T07:05:39;20.00;75.40
69895;DHT22;57172;52.034;5.090;2023-08-20T07:08:06;20.10;75.20
69895;DHT22;57172;52.034;5.090;2023-08-20T07:10:33;20.10;75.30
69895;DHT22;57172;52.034;5.090;2023-08-20T07:13:00;20.20;75.20
69895;DHT22;57172;52.034;5.090;2023-08-20T07:15:27;20.30;75.20
69895;DHT22;57172;52.034;5.090;2023-08-20T07:17:54;20.40;75.10
69895;DHT22;57172;52.034;5.090;2023-08-20T07:20:21;20.40;74.90
69895;DHT22;57172;52.034;5.090;2023-08-20T07:22:48;20.50;74.80
69895;DHT22;57172;52.034;5.090;2023-08-20T07:25:15;20.60;74.90
69895;DHT22;57172;52.034;5.090;2023-08-20T07:27:42;20.60;74.80
69895;DHT22;57172;52.034;5.090;2023-08-20T07:30:10;20.70;74.50
69895;DHT22;57172;52.034;5.090;2023-08-20T07:32:37;20.80;74.40
69895;DHT22;57172;52.034;5.090;2023-08-20T07:35:04;20.90;74.20
69895;DHT22;57172;52.034;5.090;2023-08-20T07:37:37;20.90;74.00
69895;DHT22;57172;52.034;5.090;2023-08-20T07:40:04;21.00;73.90
69895;DHT22;57172;52.034;5.090;2023-08-20T07:42:31;21.10;73.70
69895;DHT22;57172;52.034;5.090;2023-08-20T07:44:58;21.10;73.40
69895;DHT22;57172;52.034;5.090;2023-08-20T07:47:25;21.20;73.30
69895;DHT22;57172;52.034;5.090;2023-08-20T07:49:52;21.30;73.20
69895;DHT22;57172;52.034;5.090;2023-08-20T07:52:19;21.30;73.00
69895;DHT22;57172;52.034;5.090;2023-08-20T07:54:46;21.40;72.80
69895;DHT22;57172;52.034;5.090;2023-08-20T07:57:13;21.50;72.50
69895;DHT22;57172;52.034;5.090;2023-08-20T07:59:40;21.60;72.30
69895;DHT22;57172;52.034;5.090;2023-08-20T08:02:07;21.70;72.00
69895;DHT22;57172;52.034;5.090;2023-08-20T08:04:35;21.70;71.80
69895;DHT22;57172;52.034;5.090;2023-08-20T08:07:02;21.90;71.60
69895;DHT22;57172;52.034;5.090;2023-08-20T08:09:30;22.00;71.90
69895;DHT22;57172;52.034;5.090;2023-08-20T08:11:58;22.30;73.40
69895;DHT22;57172;52.034;5.090;2023-08-20T08:14:26;22.80;74.70
69895;DHT22;57172;52.034;5.090;2023-08-20T08:16:53;23.30;74.70
69895;DHT22;57172;52.034;5.090;2023-08-20T08:19:21;23.90;73.90
69895;DHT22;57172;52.034;5.090;2023-08-20T08:21:48;24.30;73.10
69895;DHT22;57172;52.034;5.090;2023-08-20T08:24:15;24.80;71.50
69895;DHT22;57172;52.034;5.090;2023-08-20T08:26:42;25.30;69.10
69895;DHT22;57172;52.034;5.090;2023-08-20T08:29:09;25.60;67.80
69895;DHT22;57172;52.034;5.090;2023-08-20T08:31:36;26.10;66.40
69895;DHT22;57172;52.034;5.090;2023-08-20T08:34:03;26.70;65.20
69895;DHT22;57172;52.034;5.090;2023-08-20T08:36:30;26.90;63.70
69895;DHT22;57172;52.034;5.090;2023-08-20T08:38:57;27.30;62.40
69895;DHT22;57172;52.034;5.090;2023-08-20T08:41:26;27.70;61.10
69895;DHT22;57172;52.034;5.090;2023-08-20T08:43:56;28.10;59.40
69895;DHT22;57172;52.034;5.090;2023-08-20T08:46:24;28.50;59.20
69895;DHT22;57172;52.034;5.090;2023-08-20T08:48:52;28.80;57.70
69895;DHT22;57172;52.034;5.090;2023-08-20T08:51:19;29.00;57.30
69895;DHT22;57172;52.034;5.090;2023-08-20T08:53:46;29.30;57.00
69895;DHT22;57172;52.034;5.090;2023-08-20T08:56:13;29.80;55.40
69895;DHT22;57172;52.034;5.090;2023-08-20T08:58:40;30.40;54.20
69895;DHT22;57172;52.034;5.090;2023-08-20T09:01:07;30.90;53.00
69895;DHT22;57172;52.034;5.090;2023-08-20T09:03:34;31.10;51.70
69895;DHT22;57172;52.034;5.090;2023-08-20T09:06:02;31.30;51.00
69895;DHT22;57172;52.034;5.090;2023-08-20T09:08:34;31.60;50.60
69895;DHT22;57172;52.034;5.090;2023-08-20T09:11:02;31.80;50.00
69895;DHT22;57172;52.034;5.090;2023-08-20T09:13:38;32.10;48.80
69895;DHT22;57172;52.034;5.090;2023-08-20T09:16:10;32.00;47.70
69895;DHT22;57172;52.034;5.090;2023-08-20T09:18:41;32.00;46.70
69895;DHT22;57172;52.034;5.090;2023-08-20T09:21:09;31.70;45.80
69895;DHT22;57172;52.034;5.090;2023-08-20T09:23:37;31.50;46.50
69895;DHT22;57172;52.034;5.090;2023-08-20T09:26:06;31.60;46.60
69895;DHT22;57172;52.034;5.090;2023-08-20T09:28:44;31.90;46.00
69895;DHT22;57172;52.034;5.090;2023-08-20T09:31:12;32.20;44.90
69895;DHT22;57172;52.034;5.090;2023-08-20T09:33:53;32.40;44.20
69895;DHT22;57172;52.034;5.090;2023-08-20T09:36:33;32.70;43.10
69895;DHT22;57172;52.034;5.090;2023-08-20T09:39:02;33.00;42.10
69895;DHT22;57172;52.034;5.090;2023-08-20T09:41:30;33.30;42.60
69895;DHT22;57172;52.034;5.090;2023-08-20T09:43:59;33.30;41.40
69895;DHT22;57172;52.034;5.090;2023-08-20T09:46:27;33.10;42.10
69895;DHT22;57172;52.034;5.090;2023-08-20T09:48:56;33.20;41.60
69895;DHT22;57172;52.034;5.090;2023-08-20T09:51:27;33.40;41.90
69895;DHT22;57172;52.034;5.090;2023-08-20T09:54:13;33.60;41.90
69895;DHT22;57172;52.034;5.090;2023-08-20T09:56:43;33.90;41.20
69895;DHT22;57172;52.034;5.090;2023-08-20T09:59:13;34.20;39.70
69895;DHT22;57172;52.034;5.090;2023-08-20T10:01:40;34.10;40.00
69895;DHT22;57172;52.034;5.090;2023-08-20T10:04:10;34.40;40.10
69895;DHT22;57172;52.034;5.090;2023-08-20T10:06:37;35.00;39.10
69895;DHT22;57172;52.034;5.090;2023-08-20T10:09:04;35.00;38.40
69895;DHT22;57172;52.034;5.090;2023-08-20T10:11:32;34.90;38.30
69895;DHT22;57172;52.034;5.090;2023-08-20T10:13:59;35.10;38.30
69895;DHT22;57172;52.034;5.090;2023-08-20T10:16:27;34.90;37.70
69895;DHT22;57172;52.034;5.090;2023-08-20T10:18:54;34.60;38.00
69895;DHT22;57172;52.034;5.090;2023-08-20T10:21:26;34.70;37.90
69895;DHT22;57172;52.034;5.090;2023-08-20T10:23:53;34.90;38.00
69895;DHT22;57172;52.034;5.090;2023-08-20T10:26:20;35.30;37.40
69895;DHT22;57172;52.034;5.090;2023-08-20T10:28:51;35.70;36.90
69895;DHT22;57172;52.034;5.090;2023-08-20T10:31:18;35.90;37.00
69895;DHT22;57172;52.034;5.090;2023-08-20T10:36:19;35.50;37.20
69895;DHT22;57172;52.034;5.090;2023-08-20T10:38:53;35.90;36.30
69895;DHT22;57172;52.034;5.090;2023-08-20T10:41:30;35.90;36.70
69895;DHT22;57172;52.034;5.090;2023-08-20T10:43:58;36.10;36.20
69895;DHT22;57172;52.034;5.090;2023-08-20T10:46:28;36.20;35.80
69895;DHT22;57172;52.034;5.090;2023-08-20T10:49:02;36.00;35.20
69895;DHT22;57172;52.034;5.090;2023-08-20T10:51:39;35.90;34.80
69895;DHT22;57172;52.034;5.090;2023-08-20T10:54:08;36.20;34.80
69895;DHT22;57172;52.034;5.090;2023-08-20T10:56:54;36.40;34.40
69895;DHT22;57172;52.034;5.090;2023-08-20T10:59:29;36.40;33.90
69895;DHT22;57172;52.034;5.090;2023-08-20T11:02:00;36.30;34.80
69895;DHT22;57172;52.034;5.090;2023-08-20T11:04:31;36.70;34.40
69895;DHT22;57172;52.034;5.090;2023-08-20T11:07:01;36.40;34.00
69895;DHT22;57172;52.034;5.090;2023-08-20T11:09:30;36.60;34.80
69895;DHT22;57172;52.034;5.090;2023-08-20T11:11:58;36.90;34.00
69895;DHT22;57172;52.034;5.090;2023-08-20T11:14:25;36.70;33.90
69895;DHT22;57172;52.034;5.090;2023-08-20T11:16:53;36.90;33.90
69895;DHT22;57172;52.034;5.090;2023-08-20T11:19:22;37.00;33.80
69895;DHT22;57172;52.034;5.090;2023-08-20T11:21:50;37.20;34.10
69895;DHT22;57172;52.034;5.090;2023-08-20T11:24:17;37.90;33.70
69895;DHT22;57172;52.034;5.090;2023-08-20T11:26:47;38.50;32.80
69895;DHT22;57172;52.034;5.090;2023-08-20T11:29:15;38.70;32.00
69895;DHT22;57172;52.034;5.090;2023-08-20T11:31:49;38.00;31.90
69895;DHT22;57172;52.034;5.090;2023-08-20T11:34:18;37.40;32.00
69895;DHT22;57172;52.034;5.090;2023-08-20T11:36:46;36.80;33.30
69895;DHT22;57172;52.034;5.090;2023-08-20T11:39:13;37.00;34.20
69895;DHT22;57172;52.034;5.090;2023-08-20T11:41:40;37.40;33.00
69895;DHT22;57172;52.034;5.090;2023-08-20T11:44:10;37.80;32.80
69895;DHT22;57172;52.034;5.090;2023-08-20T11:46:44;38.20;32.40
69895;DHT22;57172;52.034;5.090;2023-08-20T11:49:12;38.50;32.90
69895;DHT22;57172;52.034;5.090;2023-08-20T11:54:09;39.00;31.70
69895;DHT22;57172;52.034;5.090;2023-08-20T11:56:47;38.70;30.70
69895;DHT22;57172;52.034;5.090;2023-08-20T11:59:16;37.90;31.10
69895;DHT22;57172;52.034;5.090;2023-08-20T12:01:47;37.50;31.90
69895;DHT22;57172;52.034;5.090;2023-08-20T12:04:16;37.50;32.30
69895;DHT22;57172;52.034;5.090;2023-08-20T12:06:43;38.00;32.60
69895;DHT22;57172;52.034;5.090;2023-08-20T12:09:22;38.50;31.50
69895;DHT22;57172;52.034;5.090;2023-08-20T12:11:51;38.10;31.10
69895;DHT22;57172;52.034;5.090;2023-08-20T12:14:19;37.80;31.40
69895;DHT22;57172;52.034;5.090;2023-08-20T12:16:46;37.90;31.70
69895;DHT22;57172;52.034;5.090;2023-08-20T12:19:14;38.40;31.90
69895;DHT22;57172;52.034;5.090;2023-08-20T12:21:42;38.80;31.80
69895;DHT22;57172;52.034;5.090;2023-08-20T12:24:10;38.80;31.10
69895;DHT22;57172;52.034;5.090;2023-08-20T12:26:38;38.40;30.90
69895;DHT22;57172;52.034;5.090;2023-08-20T12:29:06;37.90;31.20
69895;DHT22;57172;52.034;5.090;2023-08-20T12:31:33;37.20;32.10
69895;DHT22;57172;52.034;5.090;2023-08-20T12:34:01;37.00;32.90
69895;DHT22;57172;52.034;5.090;2023-08-20T12:36:28;37.10;32.80
69895;DHT22;57172;52.034;5.090;2023-08-20T12:38:56;36.70;32.80
69895;DHT22;57172;52.034;5.090;2023-08-20T12:41:23;36.60;32.90
69895;DHT22;57172;52.034;5.090;2023-08-20T12:43:50;36.30;33.50
69895;DHT22;57172;52.034;5.090;2023-08-20T12:46:17;36.30;34.00
69895;DHT22;57172;52.034;5.090;2023-08-20T12:48:44;36.70;33.60
69895;DHT22;57172;52.034;5.090;2023-08-20T12:51:12;36.80;33.10
69895;DHT22;57172;52.034;5.090;2023-08-20T12:53:41;36.60;33.00
69895;DHT22;57172;52.034;5.090;2023-08-20T12:56:08;36.10;33.20
69895;DHT22;57172;52.034;5.090;2023-08-20T12:58:35;35.60;33.50
69895;DHT22;57172;52.034;5.090;2023-08-20T13:01:02;35.00;33.80
69895;DHT22;57172;52.034;5.090;2023-08-20T13:03:29;34.50;34.30
69895;DHT22;57172;52.034;5.090;2023-08-20T13:05:56;34.20;35.40
69895;DHT22;57172;52.034;5.090;2023-08-20T13:08:24;34.50;36.40
69895;DHT22;57172;52.034;5.090;2023-08-20T13:10:56;34.90;35.70
69895;DHT22;57172;52.034;5.090;2023-08-20T13:13:24;35.10;35.10
69895;DHT22;57172;52.034;5.090;2023-08-20T13:15:53;34.90;34.90
69895;DHT22;57172;52.034;5.090;2023-08-20T13:18:21;35.00;35.50
69895;DHT22;57172;52.034;5.090;2023-08-20T13:20:55;35.50;35.50
69895;DHT22;57172;52.034;5.090;2023-08-20T13:23:22;36.30;34.90
69895;DHT22;57172;52.034;5.090;2023-08-20T13:25:50;36.70;34.20
69895;DHT22;57172;52.034;5.090;2023-08-20T13:28:17;36.70;33.80
69895;DHT22;57172;52.034;5.090;2023-08-20T13:30:45;37.00;34.10
69895;DHT22;57172;52.034;5.090;2023-08-20T13:33:13;37.50;33.10
69895;DHT22;57172;52.034;5.090;2023-08-20T13:35:41;37.50;33.00
69895;DHT22;57172;52.034;5.090;2023-08-20T13:38:09;37.90;32.70
69895;DHT22;57172;52.034;5.090;2023-08-20T13:40:36;38.40;32.30
69895;DHT22;57172;52.034;5.090;2023-08-20T13:43:03;39.10;31.50
69895;DHT22;57172;52.034;5.090;2023-08-20T13:45:31;39.30;31.10
69895;DHT22;57172;52.034;5.090;2023-08-20T13:47:58;39.20;30.60
69895;DHT22;57172;52.034;5.090;2023-08-20T13:50:26;38.50;30.60
69895;DHT22;57172;52.034;5.090;2023-08-20T13:52:53;37.90;31.50
69895;DHT22;57172;52.034;5.090;2023-08-20T13:55:20;37.50;31.70
69895;DHT22;57172;52.034;5.090;2023-08-20T13:57:48;37.20;31.80
69895;DHT22;57172;52.034;5.090;2023-08-20T14:00:15;36.90;31.90
69895;DHT22;57172;52.034;5.090;2023-08-20T14:02:42;36.40;32.00
69895;DHT22;57172;52.034;5.090;2023-08-20T14:05:09;36.00;33.30
69895;DHT22;57172;52.034;5.090;2023-08-20T14:07:37;35.90;33.20
69895;DHT22;57172;52.034;5.090;2023-08-20T14:10:04;35.80;33.20
69895;DHT22;57172;52.034;5.090;2023-08-20T14:12:32;35.80;33.30
69895;DHT22;57172;52.034;5.090;2023-08-20T14:14:59;35.70;33.60
69895;DHT22;57172;52.034;5.090;2023-08-20T14:17:27;35.30;33.90
69895;DHT22;57172;52.034;5.090;2023-08-20T14:19:54;34.60;34.80
69895;DHT22;57172;52.034;5.090;2023-08-20T14:22:21;34.20;35.30
69895;DHT22;57172;52.034;5.090;2023-08-20T14:24:48;33.70;35.90
69895;DHT22;57172;52.034;5.090;2023-08-20T14:27:15;33.30;36.40
69895;DHT22;57172;52.034;5.090;2023-08-20T14:29:42;32.90;37.10
69895;DHT22;57172;52.034;5.090;2023-08-20T14:32:09;32.60;37.90
69895;DHT22;57172;52.034;5.090;2023-08-20T14:34:36;32.50;38.60
69895;DHT22;57172;52.034;5.090;2023-08-20T14:37:04;32.60;39.60
69895;DHT22;57172;52.034;5.090;2023-08-20T14:39:31;33.20;39.40
69895;DHT22;57172;52.034;5.090;2023-08-20T14:41:59;33.60;39.10
69895;DHT22;57172;52.034;5.090;2023-08-20T14:44:26;34.30;37.80
69895;DHT22;57172;52.034;5.090;2023-08-20T14:46:53;34.80;36.70
69895;DHT22;57172;52.034;5.090;2023-08-20T14:49:21;35.20;36.50
69895;DHT22;57172;52.034;5.090;2023-08-20T14:51:48;35.40;35.80
69895;DHT22;57172;52.034;5.090;2023-08-20T14:54:16;35.40;35.90
69895;DHT22;57172;52.034;5.090;2023-08-20T14:56:43;35.50;35.50
69895;DHT22;57172;52.034;5.090;2023-08-20T14:59:10;35.60;35.40
69895;DHT22;57172;52.034;5.090;2023-08-20T15:01:37;35.50;35.30
69895;DHT22;57172;52.034;5.090;2023-08-20T15:04:04;35.50;35.70
69895;DHT22;57172;52.034;5.090;2023-08-20T15:06:31;35.50;35.90
69895;DHT22;57172;52.034;5.090;2023-08-20T15:08:58;35.60;35.50
69895;DHT22;57172;52.034;5.090;2023-08-20T15:11:25;35.40;35.00
69895;DHT22;57172;52.034;5.090;2023-08-20T15:13:54;34.90;36.30
69895;DHT22;57172;52.034;5.090;2023-08-20T15:16:21;35.00;36.50
69895;DHT22;57172;52.034;5.090;2023-08-20T15:18:48;35.10;36.40
69895;DHT22;57172;52.034;5.090;2023-08-20T15:21:15;35.00;36.10
69895;DHT22;57172;52.034;5.090;2023-08-20T15:23:42;34.80;35.90
69895;DHT22;57172;52.034;5.090;2023-08-20T15:26:10;34.30;36.30
69895;DHT22;57172;52.034;5.090;2023-08-20T15:28:37;33.80;36.80
69895;DHT22;57172;52.034;5.090;2023-08-20T15:31:04;33.20;37.30
69895;DHT22;57172;52.034;5.090;2023-08-20T15:33:31;32.60;38.00
69895;DHT22;57172;52.034;5.090;2023-08-20T15:35:58;32.00;38.80
69895;DHT22;57172;52.034;5.090;2023-08-20T15:38:26;31.70;39.40
69895;DHT22;57172;52.034;5.090;2023-08-20T15:40:54;31.70;40.30
69895;DHT22;57172;52.034;5.090;2023-08-20T15:43:22;31.90;40.00